sensor_id;sensor_type;location;lat;lon;timestamp;P1;durP1;ratioP1;P2;durP2;ratioP2
72109;SDS011;59983;52.010;5.420;2024-01-30T00:00:34;5.40;;;5.10;;
72109;SDS011;59983;52.010;5.420;2024-01-30T00:03:00;5.80;;;5.50;;
72109;SDS011;59983;52.010;5.420;2024-01-30T00:05:27;5.55;;;5.25;;
72109;SDS011;59983;52.010;5.420;2024-01-30T00:07:54;4.73;;;4.43;;
72109;SDS011;59983;52.010;5.420;2024-01-30T00:10:20;5.32;;;4.93;;
72109;SDS011;59983;52.010;5.420;2024-01-30T00:12:47;5.55;;;5.20;;
72109;SDS011;59983;52.010;5.420;2024-01-30T00:15:13;5.13;;;4.82;;
72109;SDS011;59983;52.010;5.420;2024-01-30T00:17:41;6.13;;;5.72;;
72109;SDS011;59983;52.010;5.420;2024-01-30T00:20:07;5.10;;;4.80;;
72109;SDS011;59983;52.010;5.420;2024-01-30T00:22:36;5.78;;;5.40;;
72109;SDS011;59983;52.010;5.420;2024-01-30T00:25:02;5.10;;;4.80;;
72109;SDS011;59983;52.010;5.420;2024-01-30T00:27:29;5.78;;;5.38;;
72109;SDS011;59983;52.010;5.420;2024-01-30T00:29:56;5.55;;;5.25;;
72109;SDS011;59983;52.010;5.420;2024-01-30T00:32:22;5.10;;;4.80;;
72109;SDS011;59983;52.010;5.420;2024-01-30T00:34:49;5.97;;;5.45;;
72109;SDS011;59983;52.010;5.420;2024-01-30T00:37:16;5.32;;;5.03;;
72109;SDS011;59983;52.010;5.420;2024-01-30T00:39:43;5.35;;;4.95;;
72109;SDS011;59983;52.010;5.420;2024-01-30T00:42:09;5.47;;;5.18;;
72109;SDS011;59983;52.010;5.420;2024-01-30T00:44:36;5.03;;;4.73;;
72109;SDS011;59983;52.010;5.420;2024-01-30T00:47:06;4.90;;;4.60;;
72109;SDS011;59983;52.010;5.420;2024-01-30T00:49:32;5.28;;;4.97;;
72109;SDS011;59983;52.010;5.420;2024-01-30T00:51:59;5.15;;;4.82;;
72109;SDS011;59983;52.010;5.420;2024-01-30T00:54:26;5.13;;;4.82;;
72109;SDS011;59983;52.010;5.420;2024-01-30T00:56:53;5.27;;;4.97;;
72109;SDS011;59983;52.010;5.420;2024-01-30T00:59:20;4.93;;;4.70;;
72109;SDS011;59983;52.010;5.420;2024-01-30T01:01:46;5.43;;;5.13;;
72109;SDS011;59983;52.010;5.420;2024-01-30T01:04:13;5.60;;;5.30;;
72109;SDS011;59983;52.010;5.420;2024-01-30T01:06:40;4.47;;;4.18;;
72109;SDS011;59983;52.010;5.420;2024-01-30T01:09:11;5.13;;;4.73;;
72109;SDS011;59983;52.010;5.420;2024-01-30T01:11:38;4.57;;;4.28;;
72109;SDS011;59983;52.010;5.420;2024-01-30T01:14:04;5.32;;;5.03;;
72109;SDS011;59983;52.010;5.420;2024-01-30T01:16:31;5.35;;;5.00;;
72109;SDS011;59983;52.010;5.420;2024-01-30T01:18:58;5.05;;;4.75;;
72109;SDS011;59983;52.010;5.420;2024-01-30T01:21:26;4.77;;;4.53;;
72109;SDS011;59983;52.010;5.420;2024-01-30T01:23:53;4.65;;;4.35;;
72109;SDS011;59983;52.010;5.420;2024-01-30T01:26:19;4.90;;;4.60;;
72109;SDS011;59983;52.010;5.420;2024-01-30T01:28:46;5.00;;;4.60;;
72109;SDS011;59983;52.010;5.420;2024-01-30T01:31:12;4.25;;;4.05;;
72109;SDS011;59983;52.010;5.420;2024-01-30T01:33:39;5.67;;;5.30;;
72109;SDS011;59983;52.010;5.420;2024-01-30T01:36:06;5.32;;;5.03;;
72109;SDS011;59983;52.010;5.420;2024-01-30T01:38:33;5.72;;;5.43;;
72109;SDS011;59983;52.010;5.420;2024-01-30T01:40:59;5.00;;;4.70;;
72109;SDS011;59983;52.010;5.420;2024-01-30T01:43:26;5.97;;;5.57;;
72109;SDS011;59983;52.010;5.420;2024-01-30T01:45:52;5.00;;;4.70;;
72109;SDS011;59983;52.010;5.420;2024-01-30T01:48:19;5.13;;;4.82;;
72109;SDS011;59983;52.010;5.420;2024-01-30T01:50:46;4.80;;;4.50;;
72109;SDS011;59983;52.010;5.420;2024-01-30T01:53:13;5.05;;;4.75;;
72109;SDS011;59983;52.010;5.420;2024-01-30T01:55:42;4.53;;;4.32;;
72109;SDS011;59983;52.010;5.420;2024-01-30T01:58:09;4.53;;;4.23;;
72109;SDS011;59983;52.010;5.420;2024-01-30T02:00:36;5.22;;;4.93;;
72109;SDS011;59983;52.010;5.420;2024-01-30T02:03:06;5.95;;;5.55;;
72109;SDS011;59983;52.010;5.420;2024-01-30T02:05:34;5.00;;;4.70;;
72109;SDS011;59983;52.010;5.420;2024-01-30T02:08:01;4.93;;;4.63;;
72109;SDS011;59983;52.010;5.420;2024-01-30T02:10:28;5.10;;;4.80;;
72109;SDS011;59983;52.010;5.420;2024-01-30T02:12:54;5.72;;;5.22;;
72109;SDS011;59983;52.010;5.420;2024-01-30T02:15:21;5.28;;;4.97;;
72109;SDS011;59983;52.010;5.420;2024-01-30T02:17:47;4.85;;;4.55;;
72109;SDS011;59983;52.010;5.420;2024-01-30T02:20:14;4.90;;;4.70;;
72109;SDS011;59983;52.010;5.420;2024-01-30T02:22:41;4.87;;;4.67;;
72109;SDS011;59983;52.010;5.420;2024-01-30T02:25:08;4.72;;;4.45;;
72109;SDS011;59983;52.010;5.420;2024-01-30T02:27:35;5.18;;;4.93;;
72109;SDS011;59983;52.010;5.420;2024-01-30T02:30:02;4.93;;;4.70;;
72109;SDS011;59983;52.010;5.420;2024-01-30T02:32:29;5.03;;;4.72;;
72109;SDS011;59983;52.010;5.420;2024-01-30T02:34:55;5.53;;;5.23;;
72109;SDS011;59983;52.010;5.420;2024-01-30T02:37:22;4.85;;;4.65;;
72109;SDS011;59983;52.010;5.420;2024-01-30T02:39:48;5.07;;;4.72;;
72109;SDS011;59983;52.010;5.420;2024-01-30T02:42:15;4.07;;;3.88;;
72109;SDS011;59983;52.010;5.420;2024-01-30T02:44:42;5.00;;;4.70;;
72109;SDS011;59983;52.010;5.420;2024-01-30T02:47:08;5.10;;;4.80;;
72109;SDS011;59983;52.010;5.420;2024-01-30T02:49:35;4.45;;;4.15;;
72109;SDS011;59983;52.010;5.420;2024-01-30T02:52:01;5.18;;;4.88;;
72109;SDS011;59983;52.010;5.420;2024-01-30T02:54:29;5.30;;;5.00;;
72109;SDS011;59983;52.010;5.420;2024-01-30T02:56:56;5.07;;;4.68;;
72109;SDS011;59983;52.010;5.420;2024-01-30T02:59:23;5.00;;;4.70;;
72109;SDS011;59983;52.010;5.420;2024-01-30T03:01:50;4.75;;;4.55;;
72109;SDS011;59983;52.010;5.420;2024-01-30T03:04:16;5.45;;;4.95;;
72109;SDS011;59983;52.010;5.420;2024-01-30T03:06:46;4.47;;;4.22;;
72109;SDS011;59983;52.010;5.420;2024-01-30T03:09:15;5.13;;;4.82;;
72109;SDS011;59983;52.010;5.420;2024-01-30T03:11:42;4.17;;;3.97;;
72109;SDS011;59983;52.010;5.420;2024-01-30T03:14:09;4.10;;;3.90;;
72109;SDS011;59983;52.010;5.420;2024-01-30T03:16:38;5.15;;;4.95;;
72109;SDS011;59983;52.010;5.420;2024-01-30T03:19:06;4.95;;;4.75;;
72109;SDS011;59983;52.010;5.420;2024-01-30T03:21:34;5.20;;;4.90;;
72109;SDS011;59983;52.010;5.420;2024-01-30T03:24:00;4.40;;;4.20;;
72109;SDS011;59983;52.010;5.420;2024-01-30T03:26:27;4.63;;;4.43;;
72109;SDS011;59983;52.010;5.420;2024-01-30T03:28:53;5.38;;;5.07;;
72109;SDS011;59983;52.010;5.420;2024-01-30T03:31:20;4.95;;;4.65;;
72109;SDS011;59983;52.010;5.420;2024-01-30T03:33:47;4.72;;;4.45;;
72109;SDS011;59983;52.010;5.420;2024-01-30T03:36:15;4.67;;;4.43;;
72109;SDS011;59983;52.010;5.420;2024-01-30T03:38:41;4.75;;;4.47;;
72109;SDS011;59983;52.010;5.420;2024-01-30T03:41:08;5.22;;;4.93;;
72109;SDS011;59983;52.010;5.420;2024-01-30T03:43:36;5.20;;;4.90;;
72109;SDS011;59983;52.010;5.420;2024-01-30T03:46:02;5.22;;;4.72;;
72109;SDS011;59983;52.010;5.420;2024-01-30T03:48:29;4.33;;;4.07;;
72109;SDS011;59983;52.010;5.420;2024-01-30T03:50:56;4.45;;;4.18;;
72109;SDS011;59983;52.010;5.420;2024-01-30T03:53:23;5.28;;;4.97;;
72109;SDS011;59983;52.010;5.420;2024-01-30T03:55:49;4.82;;;4.53;;
72109;SDS011;59983;52.010;5.420;2024-01-30T03:58:16;5.38;;;4.88;;
72109;SDS011;59983;52.010;5.420;2024-01-30T04:00:43;5.10;;;4.80;;
72109;SDS011;59983;52.010;5.420;2024-01-30T04:03:09;5.00;;;4.80;;
72109;SDS011;59983;52.010;5.420;2024-01-30T04:05:36;4.80;;;4.55;;
72109;SDS011;59983;52.010;5.420;2024-01-30T04:08:02;6.03;;;5.63;;
72109;SDS011;59983;52.010;5.420;2024-01-30T04:10:29;4.57;;;4.28;;
72109;SDS011;59983;52.010;5.420;2024-01-30T04:12:56;4.47;;;4.17;;
72109;SDS011;59983;52.010;5.420;2024-01-30T04:15:22;5.20;;;4.90;;
72109;SDS011;59983;52.010;5.420;2024-01-30T04:17:49;5.32;;;5.03;;
72109;SDS011;59983;52.010;5.420;2024-01-30T04:20:16;4.25;;;4.05;;
72109;SDS011;59983;52.010;5.420;2024-01-30T04:22:43;5.03;;;4.78;;
72109;SDS011;59983;52.010;5.420;2024-01-30T04:25:11;4.40;;;4.10;;
72109;SDS011;59983;52.010;5.420;2024-01-30T04:27:38;4.68;;;4.47;;
72109;SDS011;59983;52.010;5.420;2024-01-30T04:30:05;4.55;;;4.35;;
72109;SDS011;59983;52.010;5.420;2024-01-30T04:32:32;5.00;;;4.63;;
72109;SDS011;59983;52.010;5.420;2024-01-30T04:34:59;5.20;;;4.93;;
72109;SDS011;59983;52.010;5.420;2024-01-30T04:37:26;5.00;;;4.70;;
72109;SDS011;59983;52.010;5.420;2024-01-30T04:39:52;4.70;;;4.50;;
72109;SDS011;59983;52.010;5.420;2024-01-30T04:42:19;4.93;;;4.63;;
72109;SDS011;59983;52.010;5.420;2024-01-30T04:44:45;5.10;;;4.70;;
72109;SDS011;59983;52.010;5.420;2024-01-30T04:47:12;4.65;;;4.45;;
72109;SDS011;59983;52.010;5.420;2024-01-30T04:49:39;4.53;;;4.33;;
72109;SDS011;59983;52.010;5.420;2024-01-30T04:52:06;4.18;;;3.97;;
72109;SDS011;59983;52.010;5.420;2024-01-30T04:54:36;4.43;;;4.13;;
72109;SDS011;59983;52.010;5.420;2024-01-30T04:57:03;4.00;;;3.70;;
72109;SDS011;59983;52.010;5.420;2024-01-30T04:59:31;4.00;;;3.80;;
72109;SDS011;59983;52.010;5.420;2024-01-30T05:01:58;4.30;;;4.00;;
72109;SDS011;59983;52.010;5.420;2024-01-30T05:04:25;4.43;;;4.22;;
72109;SDS011;59983;52.010;5.420;2024-01-30T05:06:51;4.78;;;4.50;;
72109;SDS011;59983;52.010;5.420;2024-01-30T05:09:18;4.30;;;4.10;;
72109;SDS011;59983;52.010;5.420;2024-01-30T05:11:45;5.03;;;4.72;;
72109;SDS011;59983;52.010;5.420;2024-01-30T05:14:11;3.70;;;3.50;;
72109;SDS011;59983;52.010;5.420;2024-01-30T05:16:38;8.00;;;4.32;;
72109;SDS011;59983;52.010;5.420;2024-01-30T05:19:05;4.57;;;4.28;;
72109;SDS011;59983;52.010;5.420;2024-01-30T05:21:31;4.25;;;4.05;;
72109;SDS011;59983;52.010;5.420;2024-01-30T05:23:58;4.03;;;3.83;;
72109;SDS011;59983;52.010;5.420;2024-01-30T05:26:24;4.40;;;4.20;;
72109;SDS011;59983;52.010;5.420;2024-01-30T05:28:51;4.28;;;4.07;;
72109;SDS011;59983;52.010;5.420;2024-01-30T05:31:17;5.22;;;4.93;;
72109;SDS011;59983;52.010;5.420;2024-01-30T05:33:44;5.13;;;4.82;;
72109;SDS011;59983;52.010;5.420;2024-01-30T05:36:11;4.65;;;4.45;;
72109;SDS011;59983;52.010;5.420;2024-01-30T05:38:39;3.97;;;3.77;;
72109;SDS011;59983;52.010;5.420;2024-01-30T05:41:06;4.35;;;4.05;;
72109;SDS011;59983;52.010;5.420;2024-01-30T05:43:32;4.43;;;4.22;;
72109;SDS011;59983;52.010;5.420;2024-01-30T05:45:59;4.10;;;3.90;;
72109;SDS011;59983;52.010;5.420;2024-01-30T05:48:26;5.15;;;4.85;;
72109;SDS011;59983;52.010;5.420;2024-01-30T05:50:52;4.03;;;3.83;;
72109;SDS011;59983;52.010;5.420;2024-01-30T05:53:19;4.45;;;4.25;;
72109;SDS011;59983;52.010;5.420;2024-01-30T05:55:45;5.07;;;4.78;;
72109;SDS011;59983;52.010;5.420;2024-01-30T05:58:12;4.93;;;4.53;;
72109;SDS011;59983;52.010;5.420;2024-01-30T06:00:39;4.18;;;3.97;;
72109;SDS011;59983;52.010;5.420;2024-01-30T06:03:05;4.60;;;4.30;;
72109;SDS011;59983;52.010;5.420;2024-01-30T06:05:32;5.07;;;4.78;;
72109;SDS011;59983;52.010;5.420;2024-01-30T06:07:58;4.50;;;4.30;;
72109;SDS011;59983;52.010;5.420;2024-01-30T06:10:25;4.53;;;4.25;;
72109;SDS011;59983;52.010;5.420;2024-01-30T06:12:52;4.75;;;4.55;;
72109;SDS011;59983;52.010;5.420;2024-01-30T06:15:18;4.33;;;3.33;;
72109;SDS011;59983;52.010;5.420;2024-01-30T06:17:45;4.28;;;3.97;;
72109;SDS011;59983;52.010;5.420;2024-01-30T06:20:11;4.88;;;4.63;;
72109;SDS011;59983;52.010;5.420;2024-01-30T06:22:38;4.65;;;4.45;;
72109;SDS011;59983;52.010;5.420;2024-01-30T06:25:05;4.32;;;4.03;;
72109;SDS011;59983;52.010;5.420;2024-01-30T06:27:31;4.53;;;4.33;;
72109;SDS011;59983;52.010;5.420;2024-01-30T06:29:58;4.70;;;4.50;;
72109;SDS011;59983;52.010;5.420;2024-01-30T06:32:25;4.53;;;4.32;;
72109;SDS011;59983;52.010;5.420;2024-01-30T06:34:53;5.13;;;4.82;;
72109;SDS011;59983;52.010;5.420;2024-01-30T06:37:20;4.88;;;4.57;;
72109;SDS011;59983;52.010;5.420;2024-01-30T06:39:48;5.10;;;4.80;;
72109;SDS011;59983;52.010;5.420;2024-01-30T06:42:14;4.38;;;4.13;;
72109;SDS011;59983;52.010;5.420;2024-01-30T06:44:41;4.15;;;3.95;;
72109;SDS011;59983;52.010;5.420;2024-01-30T06:47:07;3.88;;;3.60;;
72109;SDS011;59983;52.010;5.420;2024-01-30T06:49:34;4.60;;;4.40;;
72109;SDS011;59983;52.010;5.420;2024-01-30T06:52:01;4.23;;;4.03;;
72109;SDS011;59983;52.010;5.420;2024-01-30T06:54:27;4.30;;;4.10;;
72109;SDS011;59983;52.010;5.420;2024-01-30T06:56:54;4.32;;;4.10;;
72109;SDS011;59983;52.010;5.420;2024-01-30T06:59:21;3.85;;;3.65;;
72109;SDS011;59983;52.010;5.420;2024-01-30T07:01:47;4.10;;;3.90;;
72109;SDS011;59983;52.010;5.420;2024-01-30T07:04:14;4.50;;;4.20;;
72109;SDS011;59983;52.010;5.420;2024-01-30T07:06:41;4.40;;;4.20;;
72109;SDS011;59983;52.010;5.420;2024-01-30T07:09:08;4.75;;;4.55;;
72109;SDS011;59983;52.010;5.420;2024-01-30T07:11:37;4.63;;;4.25;;
72109;SDS011;59983;52.010;5.420;2024-01-30T07:14:03;4.00;;;3.80;;
72109;SDS011;59983;52.010;5.420;2024-01-30T07:16:30;4.20;;;4.00;;
72109;SDS011;59983;52.010;5.420;2024-01-30T07:18:57;4.72;;;4.43;;
72109;SDS011;59983;52.010;5.420;2024-01-30T07:21:24;4.20;;;4.00;;
72109;SDS011;59983;52.010;5.420;2024-01-30T07:23:54;4.15;;;3.95;;
72109;SDS011;59983;52.010;5.420;2024-01-30T07:26:21;3.55;;;3.35;;
72109;SDS011;59983;52.010;5.420;2024-01-30T07:28:48;4.10;;;3.90;;
72109;SDS011;59983;52.010;5.420;2024-01-30T07:31:16;4.45;;;4.15;;
72109;SDS011;59983;52.010;5.420;2024-01-30T07:33:43;4.65;;;4.45;;
72109;SDS011;59983;52.010;5.420;2024-01-30T07:36:09;4.40;;;4.10;;
72109;SDS011;59983;52.010;5.420;2024-01-30T07:38:37;4.70;;;4.40;;
72109;SDS011;59983;52.010;5.420;2024-01-30T07:41:03;3.80;;;3.60;;
72109;SDS011;59983;52.010;5.420;2024-01-30T07:43:30;4.40;;;4.20;;
72109;SDS011;59983;52.010;5.420;2024-01-30T07:45:56;4.07;;;3.88;;
72109;SDS011;59983;52.010;5.420;2024-01-30T07:48:23;4.18;;;3.90;;
72109;SDS011;59983;52.010;5.420;2024-01-30T07:50:50;4.03;;;3.72;;
72109;SDS011;59983;52.010;5.420;2024-01-30T07:53:16;3.87;;;3.60;;
72109;SDS011;59983;52.010;5.420;2024-01-30T07:55:43;3.42;;;3.22;;
72109;SDS011;59983;52.010;5.420;2024-01-30T07:58:12;4.07;;;3.78;;
72109;SDS011;59983;52.010;5.420;2024-01-30T08:00:39;3.72;;;3.53;;
72109;SDS011;59983;52.010;5.420;2024-01-30T08:03:06;3.67;;;3.47;;
72109;SDS011;59983;52.010;5.420;2024-01-30T08:05:32;4.10;;;3.47;;
72109;SDS011;59983;52.010;5.420;2024-01-30T08:07:59;3.58;;;3.38;;
72109;SDS011;59983;52.010;5.420;2024-01-30T08:10:26;4.00;;;3.80;;
72109;SDS011;59983;52.010;5.420;2024-01-30T08:12:53;3.88;;;3.65;;
72109;SDS011;59983;52.010;5.420;2024-01-30T08:15:19;3.85;;;3.65;;
72109;SDS011;59983;52.010;5.420;2024-01-30T08:17:46;3.43;;;3.23;;
72109;SDS011;59983;52.010;5.420;2024-01-30T08:20:12;3.53;;;3.30;;
72109;SDS011;59983;52.010;5.420;2024-01-30T08:22:40;3.90;;;3.60;;
72109;SDS011;59983;52.010;5.420;2024-01-30T08:25:07;3.15;;;3.00;;
72109;SDS011;59983;52.010;5.420;2024-01-30T08:27:34;3.20;;;3.10;;
72109;SDS011;59983;52.010;5.420;2024-01-30T08:30:02;3.53;;;3.33;;
72109;SDS011;59983;52.010;5.420;2024-01-30T08:32:29;3.55;;;3.20;;
72109;SDS011;59983;52.010;5.420;2024-01-30T08:34:56;3.00;;;2.90;;
72109;SDS011;59983;52.010;5.420;2024-01-30T08:37:23;3.40;;;3.20;;
72109;SDS011;59983;52.010;5.420;2024-01-30T08:39:50;3.60;;;3.40;;
72109;SDS011;59983;52.010;5.420;2024-01-30T08:42:17;3.73;;;3.43;;
72109;SDS011;59983;52.010;5.420;2024-01-30T08:44:48;4.20;;;3.45;;
72109;SDS011;59983;52.010;5.420;2024-01-30T08:47:17;4.18;;;3.97;;
72109;SDS011;59983;52.010;5.420;2024-01-30T08:49:44;3.08;;;2.90;;
72109;SDS011;59983;52.010;5.420;2024-01-30T08:52:11;3.30;;;3.03;;
72109;SDS011;59983;52.010;5.420;2024-01-30T08:54:38;3.40;;;3.20;;
72109;SDS011;59983;52.010;5.420;2024-01-30T08:57:05;3.80;;;3.50;;
72109;SDS011;59983;52.010;5.420;2024-01-30T08:59:31;3.72;;;3.53;;
72109;SDS011;59983;52.010;5.420;2024-01-30T09:01:58;3.78;;;3.58;;
72109;SDS011;59983;52.010;5.420;2024-01-30T09:04:37;3.38;;;3.17;;
72109;SDS011;59983;52.010;5.420;2024-01-30T09:07:04;3.30;;;3.00;;
72109;SDS011;59983;52.010;5.420;2024-01-30T09:09:35;3.05;;;2.95;;
72109;SDS011;59983;52.010;5.420;2024-01-30T09:12:03;4.03;;;3.33;;
72109;SDS011;59983;52.010;5.420;2024-01-30T09:14:33;3.15;;;2.95;;
72109;SDS011;59983;52.010;5.420;2024-01-30T09:16:59;3.97;;;3.78;;
72109;SDS011;59983;52.010;5.420;2024-01-30T09:19:26;3.87;;;3.57;;
72109;SDS011;59983;52.010;5.420;2024-01-30T09:21:53;3.72;;;3.53;;
72109;SDS011;59983;52.010;5.420;2024-01-30T09:24:19;3.90;;;3.60;;
72109;SDS011;59983;52.010;5.420;2024-01-30T09:26:46;3.60;;;3.40;;
72109;SDS011;59983;52.010;5.420;2024-01-30T09:29:12;4.88;;;4.05;;
72109;SDS011;59983;52.010;5.420;2024-01-30T09:31:42;5.77;;;3.77;;
72109;SDS011;59983;52.010;5.420;2024-01-30T09:34:10;3.47;;;3.17;;
72109;SDS011;59983;52.010;5.420;2024-01-30T09:36:36;3.85;;;3.65;;
72109;SDS011;59983;52.010;5.420;2024-01-30T09:39:03;4.60;;;3.47;;
72109;SDS011;59983;52.010;5.420;2024-01-30T09:41:32;4.40;;;4.10;;
72109;SDS011;59983;52.010;5.420;2024-01-30T09:43:59;4.83;;;3.47;;
72109;SDS011;59983;52.010;5.420;2024-01-30T09:46:26;5.90;;;3.42;;
72109;SDS011;59983;52.010;5.420;2024-01-30T09:48:55;4.43;;;4.03;;
72109;SDS011;59983;52.010;5.420;2024-01-30T09:51:24;5.80;;;3.50;;
72109;SDS011;59983;52.010;5.420;2024-01-30T09:53:52;5.07;;;4.03;;
72109;SDS011;59983;52.010;5.420;2024-01-30T09:56:20;4.27;;;3.87;;
72109;SDS011;59983;52.010;5.420;2024-01-30T09:58:48;3.97;;;3.58;;
72109;SDS011;59983;52.010;5.420;2024-01-30T10:01:15;4.15;;;3.85;;
72109;SDS011;59983;52.010;5.420;2024-01-30T10:03:45;4.20;;;3.83;;
72109;SDS011;59983;52.010;5.420;2024-01-30T10:06:12;9.88;;;4.18;;
72109;SDS011;59983;52.010;5.420;2024-01-30T10:08:40;13.67;;;4.40;;
72109;SDS011;59983;52.010;5.420;2024-01-30T10:11:08;4.50;;;3.72;;
72109;SDS011;59983;52.010;5.420;2024-01-30T10:13:35;5.75;;;4.03;;
72109;SDS011;59983;52.010;5.420;2024-01-30T10:16:02;4.75;;;4.32;;
72109;SDS011;59983;52.010;5.420;2024-01-30T10:18:29;5.05;;;3.80;;
72109;SDS011;59983;52.010;5.420;2024-01-30T10:20:56;3.90;;;3.60;;
72109;SDS011;59983;52.010;5.420;2024-01-30T10:23:22;4.65;;;4.25;;
72109;SDS011;59983;52.010;5.420;2024-01-30T10:25:50;8.90;;;4.03;;
72109;SDS011;59983;52.010;5.420;2024-01-30T10:28:18;4.03;;;3.63;;
72109;SDS011;59983;52.010;5.420;2024-01-30T10:30:45;5.47;;;4.38;;
72109;SDS011;59983;52.010;5.420;2024-01-30T10:33:11;3.70;;;3.50;;
72109;SDS011;59983;52.010;5.420;2024-01-30T10:35:38;4.13;;;3.83;;
72109;SDS011;59983;52.010;5.420;2024-01-30T10:38:05;5.82;;;4.63;;
72109;SDS011;59983;52.010;5.420;2024-01-30T10:40:36;7.78;;;4.18;;
72109;SDS011;59983;52.010;5.420;2024-01-30T10:43:05;6.53;;;5.75;;
72109;SDS011;59983;52.010;5.420;2024-01-30T10:45:34;5.03;;;3.73;;
72109;SDS011;59983;52.010;5.420;2024-01-30T10:48:03;4.55;;;4.18;;
72109;SDS011;59983;52.010;5.420;2024-01-30T10:50:34;4.10;;;3.90;;
72109;SDS011;59983;52.010;5.420;2024-01-30T10:53:15;4.10;;;3.80;;
72109;SDS011;59983;52.010;5.420;2024-01-30T10:55:44;4.88;;;4.13;;
72109;SDS011;59983;52.010;5.420;2024-01-30T10:58:13;7.23;;;4.60;;
72109;SDS011;59983;52.010;5.420;2024-01-30T11:00:41;5.10;;;4.70;;
72109;SDS011;59983;52.010;5.420;2024-01-30T11:03:08;4.65;;;4.32;;
72109;SDS011;59983;52.010;5.420;2024-01-30T11:05:35;4.40;;;4.13;;
72109;SDS011;59983;52.010;5.420;2024-01-30T11:08:14;4.60;;;4.30;;
72109;SDS011;59983;52.010;5.420;2024-01-30T11:10:46;4.13;;;3.83;;
72109;SDS011;59983;52.010;5.420;2024-01-30T11:13:13;4.28;;;4.00;;
72109;SDS011;59983;52.010;5.420;2024-01-30T11:15:40;4.80;;;4.40;;
72109;SDS011;59983;52.010;5.420;2024-01-30T11:18:07;4.63;;;4.32;;
72109;SDS011;59983;52.010;5.420;2024-01-30T11:20:33;4.80;;;4.18;;
72109;SDS011;59983;52.010;5.420;2024-01-30T11:23:02;5.10;;;3.97;;
72109;SDS011;59983;52.010;5.420;2024-01-30T11:25:32;4.18;;;3.83;;
72109;SDS011;59983;52.010;5.420;2024-01-30T11:27:59;6.35;;;4.72;;
72109;SDS011;59983;52.010;5.420;2024-01-30T11:30:27;4.68;;;4.28;;
72109;SDS011;59983;52.010;5.420;2024-01-30T11:33:12;4.53;;;4.10;;
72109;SDS011;59983;52.010;5.420;2024-01-30T11:35:41;3.87;;;3.47;;
72109;SDS011;59983;52.010;5.420;2024-01-30T11:38:10;3.65;;;3.40;;
72109;SDS011;59983;52.010;5.420;2024-01-30T11:40:40;4.45;;;4.05;;
72109;SDS011;59983;52.010;5.420;2024-01-30T11:43:07;3.80;;;3.58;;
72109;SDS011;59983;52.010;5.420;2024-01-30T11:45:35;5.38;;;3.97;;
72109;SDS011;59983;52.010;5.420;2024-01-30T11:48:03;3.40;;;3.10;;
72109;SDS011;59983;52.010;5.420;2024-01-30T11:50:31;4.18;;;3.15;;
72109;SDS011;59983;52.010;5.420;2024-01-30T11:53:02;4.03;;;3.65;;
72109;SDS011;59983;52.010;5.420;2024-01-30T11:55:29;3.97;;;3.58;;
72109;SDS011;59983;52.010;5.420;2024-01-30T11:58:00;5.90;;;3.70;;
72109;SDS011;59983;52.010;5.420;2024-01-30T12:00:28;4.40;;;3.87;;
72109;SDS011;59983;52.010;5.420;2024-01-30T12:02:57;3.53;;;3.22;;
72109;SDS011;59983;52.010;5.420;2024-01-30T12:05:25;3.95;;;3.65;;
72109;SDS011;59983;52.010;5.420;2024-01-30T12:07:52;3.75;;;3.55;;
72109;SDS011;59983;52.010;5.420;2024-01-30T12:10:19;3.53;;;3.33;;
72109;SDS011;59983;52.010;5.420;2024-01-30T12:12:48;4.03;;;3.73;;
72109;SDS011;59983;52.010;5.420;2024-01-30T12:15:16;5.03;;;3.15;;
72109;SDS011;59983;52.010;5.420;2024-01-30T12:17:43;3.90;;;3.58;;
72109;SDS011;59983;52.010;5.420;2024-01-30T12:20:10;3.70;;;3.47;;
72109;SDS011;59983;52.010;5.420;2024-01-30T12:22:42;3.28;;;3.08;;
72109;SDS011;59983;52.010;5.420;2024-01-30T12:25:11;3.17;;;2.97;;
72109;SDS011;59983;52.010;5.420;2024-01-30T12:27:40;4.03;;;2.78;;
72109;SDS011;59983;52.010;5.420;2024-01-30T12:30:10;3.15;;;2.95;;
72109;SDS011;59983;52.010;5.420;2024-01-30T12:32:40;2.78;;;2.67;;
72109;SDS011;59983;52.010;5.420;2024-01-30T12:35:12;3.40;;;3.10;;
72109;SDS011;59983;52.010;5.420;2024-01-30T12:37:40;4.03;;;2.70;;
72109;SDS011;59983;52.010;5.420;2024-01-30T12:40:07;4.38;;;3.95;;
72109;SDS011;59983;52.010;5.420;2024-01-30T12:42:35;3.75;;;3.47;;
72109;SDS011;59983;52.010;5.420;2024-01-30T12:45:02;3.53;;;3.33;;
72109;SDS011;59983;52.010;5.420;2024-01-30T12:47:31;4.22;;;3.28;;
72109;SDS011;59983;52.010;5.420;2024-01-30T12:49:58;3.27;;;3.10;;
72109;SDS011;59983;52.010;5.420;2024-01-30T12:52:25;3.60;;;3.40;;
72109;SDS011;59983;52.010;5.420;2024-01-30T12:54:52;3.13;;;2.92;;
72109;SDS011;59983;52.010;5.420;2024-01-30T12:57:19;4.35;;;2.95;;
72109;SDS011;59983;52.010;5.420;2024-01-30T12:59:46;3.03;;;2.83;;
72109;SDS011;59983;52.010;5.420;2024-01-30T13:02:13;2.63;;;2.50;;
72109;SDS011;59983;52.010;5.420;2024-01-30T13:04:41;3.42;;;3.22;;
72109;SDS011;59983;52.010;5.420;2024-01-30T13:07:10;3.20;;;3.10;;
72109;SDS011;59983;52.010;5.420;2024-01-30T13:09:36;2.92;;;2.78;;
72109;SDS011;59983;52.010;5.420;2024-01-30T13:12:04;3.10;;;2.90;;
72109;SDS011;59983;52.010;5.420;2024-01-30T13:14:31;2.97;;;2.77;;
72109;SDS011;59983;52.010;5.420;2024-01-30T13:16:57;2.35;;;2.25;;
72109;SDS011;59983;52.010;5.420;2024-01-30T13:19:24;2.70;;;2.60;;
72109;SDS011;59983;52.010;5.420;2024-01-30T13:21:51;2.28;;;2.05;;
72109;SDS011;59983;52.010;5.420;2024-01-30T13:24:17;3.17;;;2.97;;
72109;SDS011;59983;52.010;5.420;2024-01-30T13:26:47;2.80;;;2.50;;
72109;SDS011;59983;52.010;5.420;2024-01-30T13:29:15;2.80;;;2.58;;
72109;SDS011;59983;52.010;5.420;2024-01-30T13:31:42;2.78;;;2.65;;
72109;SDS011;59983;52.010;5.420;2024-01-30T13:34:10;2.47;;;2.38;;
72109;SDS011;59983;52.010;5.420;2024-01-30T13:36:37;2.90;;;2.70;;
72109;SDS011;59983;52.010;5.420;2024-01-30T13:39:04;3.73;;;3.43;;
72109;SDS011;59983;52.010;5.420;2024-01-30T13:41:34;3.28;;;2.85;;
72109;SDS011;59983;52.010;5.420;2024-01-30T13:44:01;3.40;;;3.10;;
72109;SDS011;59983;52.010;5.420;2024-01-30T13:46:29;1.95;;;1.85;;
72109;SDS011;59983;52.010;5.420;2024-01-30T13:48:57;2.30;;;2.20;;
72109;SDS011;59983;52.010;5.420;2024-01-30T13:51:23;2.53;;;2.33;;
72109;SDS011;59983;52.010;5.420;2024-01-30T13:53:50;2.08;;;1.98;;
72109;SDS011;59983;52.010;5.420;2024-01-30T13:56:16;2.13;;;2.03;;
72109;SDS011;59983;52.010;5.420;2024-01-30T13:58:43;1.92;;;1.83;;
72109;SDS011;59983;52.010;5.420;2024-01-30T14:01:10;2.10;;;2.00;;
72109;SDS011;59983;52.010;5.420;2024-01-30T14:03:36;2.13;;;2.03;;
72109;SDS011;59983;52.010;5.420;2024-01-30T14:06:03;2.03;;;1.92;;
72109;SDS011;59983;52.010;5.420;2024-01-30T14:08:31;2.75;;;2.55;;
72109;SDS011;59983;52.010;5.420;2024-01-30T14:10:58;2.65;;;2.53;;
72109;SDS011;59983;52.010;5.420;2024-01-30T14:13:25;2.42;;;1.90;;
72109;SDS011;59983;52.010;5.420;2024-01-30T14:15:52;2.07;;;1.70;;
72109;SDS011;59983;52.010;5.420;2024-01-30T14:18:19;2.10;;;2.00;;
72109;SDS011;59983;52.010;5.420;2024-01-30T14:20:46;2.38;;;2.28;;
72109;SDS011;59983;52.010;5.420;2024-01-30T14:23:13;2.08;;;1.92;;
72109;SDS011;59983;52.010;5.420;2024-01-30T14:25:39;2.20;;;2.10;;
72109;SDS011;59983;52.010;5.420;2024-01-30T14:28:06;1.77;;;1.67;;
72109;SDS011;59983;52.010;5.420;2024-01-30T14:30:33;1.73;;;1.63;;
72109;SDS011;59983;52.010;5.420;2024-01-30T14:33:00;1.70;;;1.60;;
72109;SDS011;59983;52.010;5.420;2024-01-30T14:35:27;2.03;;;1.92;;
72109;SDS011;59983;52.010;5.420;2024-01-30T14:37:53;2.30;;;2.20;;
72109;SDS011;59983;52.010;5.420;2024-01-30T14:40:20;1.90;;;1.80;;
72109;SDS011;59983;52.010;5.420;2024-01-30T14:42:47;2.00;;;1.90;;
72109;SDS011;59983;52.010;5.420;2024-01-30T14:45:14;2.03;;;1.92;;
72109;SDS011;59983;52.010;5.420;2024-01-30T14:47:42;1.92;;;1.83;;